sensor_id;sensor_type;location;lat;lon;timestamp;P1;durP1;ratioP1;P2;durP2;ratioP2
52708;SDS011;38606;52.986;6.980;2022-07-18T00:01:30;10.05;;;6.13;;
52708;SDS011;38606;52.986;6.980;2022-07-18T00:03:57;10.93;;;6.13;;
52708;SDS011;38606;52.986;6.980;2022-07-18T00:06:23;9.45;;;6.45;;
52708;SDS011;38606;52.986;6.980;2022-07-18T00:08:49;11.13;;;7.40;;
52708;SDS011;38606;52.986;6.980;2022-07-18T00:11:15;10.88;;;6.70;;
52708;SDS011;38606;52.986;6.980;2022-07-18T00:13:41;10.40;;;6.13;;
52708;SDS011;38606;52.986;6.980;2022-07-18T00:16:07;8.32;;;6.45;;
52708;SDS011;38606;52.986;6.980;2022-07-18T00:18:32;9.40;;;6.07;;
52708;SDS011;38606;52.986;6.980;2022-07-18T00:20:58;9.57;;;6.72;;
52708;SDS011;38606;52.986;6.980;2022-07-18T00:23:24;11.05;;;6.22;;
52708;SDS011;38606;52.986;6.980;2022-07-18T00:25:50;7.88;;;5.90;;
52708;SDS011;38606;52.986;6.980;2022-07-18T00:28:16;12.43;;;6.03;;
52708;SDS011;38606;52.986;6.980;2022-07-18T00:30:42;9.38;;;6.50;;
52708;SDS011;38606;52.986;6.980;2022-07-18T00:33:08;14.20;;;6.63;;
52708;SDS011;38606;52.986;6.980;2022-07-18T00:35:33;11.90;;;6.55;;
52708;SDS011;38606;52.986;6.980;2022-07-18T00:37:59;9.38;;;6.45;;
52708;SDS011;38606;52.986;6.980;2022-07-18T00:40:27;12.90;;;7.00;;
52708;SDS011;38606;52.986;6.980;2022-07-18T00:42:53;9.25;;;6.68;;
52708;SDS011;38606;52.986;6.980;2022-07-18T00:45:19;8.88;;;6.72;;
52708;SDS011;38606;52.986;6.980;2022-07-18T00:47:45;8.30;;;6.30;;
52708;SDS011;38606;52.986;6.980;2022-07-18T00:50:10;11.57;;;6.45;;
52708;SDS011;38606;52.986;6.980;2022-07-18T00:52:36;11.68;;;7.05;;
52708;SDS011;38606;52.986;6.980;2022-07-18T00:55:06;9.35;;;6.50;;
52708;SDS011;38606;52.986;6.980;2022-07-18T00:57:32;12.48;;;6.82;;
52708;SDS011;38606;52.986;6.980;2022-07-18T00:59:58;10.50;;;7.15;;
52708;SDS011;38606;52.986;6.980;2022-07-18T01:02:42;10.98;;;6.90;;
52708;SDS011;38606;52.986;6.980;2022-07-18T01:05:08;13.13;;;8.00;;
52708;SDS011;38606;52.986;6.980;2022-07-18T01:07:34;9.77;;;6.90;;
52708;SDS011;38606;52.986;6.980;2022-07-18T01:10:01;10.88;;;7.03;;
52708;SDS011;38606;52.986;6.980;2022-07-18T01:12:27;12.10;;;7.35;;
52708;SDS011;38606;52.986;6.980;2022-07-18T01:14:53;12.32;;;7.45;;
52708;SDS011;38606;52.986;6.980;2022-07-18T01:17:20;10.75;;;7.20;;
52708;SDS011;38606;52.986;6.980;2022-07-18T01:19:46;12.77;;;7.70;;
52708;SDS011;38606;52.986;6.980;2022-07-18T01:22:13;10.68;;;7.32;;
52708;SDS011;38606;52.986;6.980;2022-07-18T01:24:40;13.13;;;7.70;;
52708;SDS011;38606;52.986;6.980;2022-07-18T01:27:07;11.48;;;7.60;;
52708;SDS011;38606;52.986;6.980;2022-07-18T01:29:33;11.75;;;7.53;;
52708;SDS011;38606;52.986;6.980;2022-07-18T01:32:06;11.18;;;7.10;;
52708;SDS011;38606;52.986;6.980;2022-07-18T01:34:32;11.05;;;7.38;;
52708;SDS011;38606;52.986;6.980;2022-07-18T01:36:58;11.07;;;7.43;;
52708;SDS011;38606;52.986;6.980;2022-07-18T01:39:25;10.98;;;6.90;;
52708;SDS011;38606;52.986;6.980;2022-07-18T01:41:54;12.13;;;7.00;;
52708;SDS011;38606;52.986;6.980;2022-07-18T01:44:21;10.15;;;6.93;;
52708;SDS011;38606;52.986;6.980;2022-07-18T01:46:47;9.80;;;7.25;;
52708;SDS011;38606;52.986;6.980;2022-07-18T01:49:12;9.60;;;7.22;;
52708;SDS011;38606;52.986;6.980;2022-07-18T01:51:38;13.20;;;7.97;;
52708;SDS011;38606;52.986;6.980;2022-07-18T01:54:04;12.20;;;7.40;;
52708;SDS011;38606;52.986;6.980;2022-07-18T01:56:29;11.07;;;7.00;;
52708;SDS011;38606;52.986;6.980;2022-07-18T01:58:55;11.45;;;6.63;;
52708;SDS011;38606;52.986;6.980;2022-07-18T02:01:21;11.52;;;7.20;;
52708;SDS011;38606;52.986;6.980;2022-07-18T02:03:47;12.15;;;7.97;;
52708;SDS011;38606;52.986;6.980;2022-07-18T02:06:13;11.02;;;7.20;;
52708;SDS011;38606;52.986;6.980;2022-07-18T02:08:38;10.60;;;7.30;;
52708;SDS011;38606;52.986;6.980;2022-07-18T02:11:04;8.85;;;6.47;;
52708;SDS011;38606;52.986;6.980;2022-07-18T02:13:30;13.10;;;7.40;;
52708;SDS011;38606;52.986;6.980;2022-07-18T02:15:56;10.98;;;7.82;;
52708;SDS011;38606;52.986;6.980;2022-07-18T02:18:21;13.32;;;7.68;;
52708;SDS011;38606;52.986;6.980;2022-07-18T02:20:47;10.10;;;7.40;;
52708;SDS011;38606;52.986;6.980;2022-07-18T02:23:13;11.13;;;7.43;;
52708;SDS011;38606;52.986;6.980;2022-07-18T02:25:38;14.80;;;7.57;;
52708;SDS011;38606;52.986;6.980;2022-07-18T02:28:04;10.77;;;8.43;;
52708;SDS011;38606;52.986;6.980;2022-07-18T02:30:30;14.50;;;8.52;;
52708;SDS011;38606;52.986;6.980;2022-07-18T02:32:56;12.57;;;8.07;;
52708;SDS011;38606;52.986;6.980;2022-07-18T02:35:22;12.70;;;7.90;;
52708;SDS011;38606;52.986;6.980;2022-07-18T02:37:47;12.20;;;7.35;;
52708;SDS011;38606;52.986;6.980;2022-07-18T02:40:13;12.30;;;7.53;;
52708;SDS011;38606;52.986;6.980;2022-07-18T02:42:39;11.82;;;7.80;;
52708;SDS011;38606;52.986;6.980;2022-07-18T02:45:06;11.07;;;6.78;;
52708;SDS011;38606;52.986;6.980;2022-07-18T02:47:32;12.07;;;7.57;;
52708;SDS011;38606;52.986;6.980;2022-07-18T02:49:58;12.30;;;7.75;;
52708;SDS011;38606;52.986;6.980;2022-07-18T02:52:24;13.60;;;7.82;;
52708;SDS011;38606;52.986;6.980;2022-07-18T02:54:50;11.18;;;6.60;;
52708;SDS011;38606;52.986;6.980;2022-07-18T02:57:15;14.50;;;8.35;;
52708;SDS011;38606;52.986;6.980;2022-07-18T02:59:41;12.30;;;7.55;;
52708;SDS011;38606;52.986;6.980;2022-07-18T03:02:07;12.52;;;7.50;;
52708;SDS011;38606;52.986;6.980;2022-07-18T03:04:32;10.75;;;7.53;;
52708;SDS011;38606;52.986;6.980;2022-07-18T03:06:58;11.85;;;7.18;;
52708;SDS011;38606;52.986;6.980;2022-07-18T03:09:24;13.50;;;8.75;;
52708;SDS011;38606;52.986;6.980;2022-07-18T03:11:52;11.00;;;8.18;;
52708;SDS011;38606;52.986;6.980;2022-07-18T03:14:19;14.95;;;7.88;;
52708;SDS011;38606;52.986;6.980;2022-07-18T03:16:46;15.48;;;8.82;;
52708;SDS011;38606;52.986;6.980;2022-07-18T03:19:12;11.85;;;7.93;;
52708;SDS011;38606;52.986;6.980;2022-07-18T03:21:37;12.73;;;8.45;;
52708;SDS011;38606;52.986;6.980;2022-07-18T03:24:03;14.02;;;8.60;;
52708;SDS011;38606;52.986;6.980;2022-07-18T03:26:29;12.60;;;7.53;;
52708;SDS011;38606;52.986;6.980;2022-07-18T03:28:55;13.43;;;8.48;;
52708;SDS011;38606;52.986;6.980;2022-07-18T03:31:21;12.00;;;7.78;;
52708;SDS011;38606;52.986;6.980;2022-07-18T03:33:46;11.20;;;7.63;;
52708;SDS011;38606;52.986;6.980;2022-07-18T03:36:12;12.80;;;8.38;;
52708;SDS011;38606;52.986;6.980;2022-07-18T03:38:38;11.95;;;8.10;;
52708;SDS011;38606;52.986;6.980;2022-07-18T03:41:08;14.38;;;7.60;;
52708;SDS011;38606;52.986;6.980;2022-07-18T03:43:35;15.95;;;8.90;;
52708;SDS011;38606;52.986;6.980;2022-07-18T03:46:02;16.25;;;8.75;;
52708;SDS011;38606;52.986;6.980;2022-07-18T03:48:28;16.95;;;9.63;;
52708;SDS011;38606;52.986;6.980;2022-07-18T03:50:54;18.65;;;9.80;;
52708;SDS011;38606;52.986;6.980;2022-07-18T03:53:19;16.77;;;9.40;;
52708;SDS011;38606;52.986;6.980;2022-07-18T03:55:45;18.50;;;9.27;;
52708;SDS011;38606;52.986;6.980;2022-07-18T03:58:11;17.00;;;9.27;;
52708;SDS011;38606;52.986;6.980;2022-07-18T04:00:37;22.20;;;9.85;;
52708;SDS011;38606;52.986;6.980;2022-07-18T04:03:03;14.77;;;8.93;;
52708;SDS011;38606;52.986;6.980;2022-07-18T04:05:28;16.00;;;9.00;;
52708;SDS011;38606;52.986;6.980;2022-07-18T04:07:54;16.13;;;8.60;;
52708;SDS011;38606;52.986;6.980;2022-07-18T04:10:20;17.98;;;8.88;;
52708;SDS011;38606;52.986;6.980;2022-07-18T04:12:53;22.98;;;9.70;;
52708;SDS011;38606;52.986;6.980;2022-07-18T04:15:20;16.88;;;9.10;;
52708;SDS011;38606;52.986;6.980;2022-07-18T04:17:47;21.58;;;9.45;;
52708;SDS011;38606;52.986;6.980;2022-07-18T04:20:13;19.73;;;9.40;;
52708;SDS011;38606;52.986;6.980;2022-07-18T04:22:50;17.10;;;7.97;;
52708;SDS011;38606;52.986;6.980;2022-07-18T04:25:17;18.17;;;8.80;;
52708;SDS011;38606;52.986;6.980;2022-07-18T04:27:45;15.75;;;8.50;;
52708;SDS011;38606;52.986;6.980;2022-07-18T04:30:11;17.35;;;8.52;;
52708;SDS011;38606;52.986;6.980;2022-07-18T04:32:38;15.43;;;8.05;;
52708;SDS011;38606;52.986;6.980;2022-07-18T04:35:04;12.55;;;7.95;;
52708;SDS011;38606;52.986;6.980;2022-07-18T04:37:31;17.55;;;8.60;;
52708;SDS011;38606;52.986;6.980;2022-07-18T04:39:57;13.38;;;8.35;;
52708;SDS011;38606;52.986;6.980;2022-07-18T04:42:23;18.05;;;8.55;;
52708;SDS011;38606;52.986;6.980;2022-07-18T04:44:49;12.18;;;7.53;;
52708;SDS011;38606;52.986;6.980;2022-07-18T04:47:15;15.23;;;8.15;;
52708;SDS011;38606;52.986;6.980;2022-07-18T04:49:41;16.25;;;7.72;;
52708;SDS011;38606;52.986;6.980;2022-07-18T04:52:06;13.32;;;7.40;;
52708;SDS011;38606;52.986;6.980;2022-07-18T04:54:32;11.07;;;7.55;;
52708;SDS011;38606;52.986;6.980;2022-07-18T04:56:58;15.18;;;7.15;;
52708;SDS011;38606;52.986;6.980;2022-07-18T04:59:23;12.02;;;6.85;;
52708;SDS011;38606;52.986;6.980;2022-07-18T05:01:49;10.20;;;6.47;;
52708;SDS011;38606;52.986;6.980;2022-07-18T05:04:15;10.00;;;6.45;;
52708;SDS011;38606;52.986;6.980;2022-07-18T05:06:40;12.48;;;6.40;;
52708;SDS011;38606;52.986;6.980;2022-07-18T05:09:06;11.88;;;6.68;;
52708;SDS011;38606;52.986;6.980;2022-07-18T05:11:32;12.95;;;6.70;;
52708;SDS011;38606;52.986;6.980;2022-07-18T05:13:57;9.75;;;5.88;;
52708;SDS011;38606;52.986;6.980;2022-07-18T05:16:23;10.85;;;6.00;;
52708;SDS011;38606;52.986;6.980;2022-07-18T05:18:49;11.88;;;6.13;;
52708;SDS011;38606;52.986;6.980;2022-07-18T05:21:14;8.65;;;5.75;;
52708;SDS011;38606;52.986;6.980;2022-07-18T05:23:40;10.73;;;5.75;;
52708;SDS011;38606;52.986;6.980;2022-07-18T05:26:06;8.82;;;4.97;;
52708;SDS011;38606;52.986;6.980;2022-07-18T05:28:31;8.15;;;5.00;;
52708;SDS011;38606;52.986;6.980;2022-07-18T05:30:57;8.27;;;4.57;;
52708;SDS011;38606;52.986;6.980;2022-07-18T05:33:24;11.73;;;5.25;;
52708;SDS011;38606;52.986;6.980;2022-07-18T05:35:49;7.80;;;4.82;;
52708;SDS011;38606;52.986;6.980;2022-07-18T05:38:15;7.85;;;4.72;;
52708;SDS011;38606;52.986;6.980;2022-07-18T05:40:41;7.28;;;4.20;;
52708;SDS011;38606;52.986;6.980;2022-07-18T05:43:07;7.68;;;4.38;;
52708;SDS011;38606;52.986;6.980;2022-07-18T05:45:32;10.60;;;4.93;;
52708;SDS011;38606;52.986;6.980;2022-07-18T05:47:58;8.93;;;4.68;;
52708;SDS011;38606;52.986;6.980;2022-07-18T05:50:24;8.98;;;4.80;;
52708;SDS011;38606;52.986;6.980;2022-07-18T05:52:50;8.13;;;4.63;;
52708;SDS011;38606;52.986;6.980;2022-07-18T05:55:16;11.00;;;4.63;;
52708;SDS011;38606;52.986;6.980;2022-07-18T05:57:42;10.82;;;4.47;;
52708;SDS011;38606;52.986;6.980;2022-07-18T06:00:08;7.28;;;4.60;;
52708;SDS011;38606;52.986;6.980;2022-07-18T06:02:35;9.27;;;4.20;;
52708;SDS011;38606;52.986;6.980;2022-07-18T06:05:02;7.75;;;4.30;;
52708;SDS011;38606;52.986;6.980;2022-07-18T06:07:28;8.57;;;4.40;;
52708;SDS011;38606;52.986;6.980;2022-07-18T06:09:54;7.63;;;4.38;;
52708;SDS011;38606;52.986;6.980;2022-07-18T06:12:20;9.00;;;4.30;;
52708;SDS011;38606;52.986;6.980;2022-07-18T06:14:46;8.80;;;4.22;;
52708;SDS011;38606;52.986;6.980;2022-07-18T06:17:12;9.35;;;4.20;;
52708;SDS011;38606;52.986;6.980;2022-07-18T06:19:38;6.47;;;4.57;;
52708;SDS011;38606;52.986;6.980;2022-07-18T06:22:04;6.15;;;4.30;;
52708;SDS011;38606;52.986;6.980;2022-07-18T06:24:30;8.82;;;3.95;;
52708;SDS011;38606;52.986;6.980;2022-07-18T06:26:56;9.18;;;3.80;;
52708;SDS011;38606;52.986;6.980;2022-07-18T06:29:22;10.93;;;4.25;;
52708;SDS011;38606;52.986;6.980;2022-07-18T06:31:47;10.30;;;3.65;;
52708;SDS011;38606;52.986;6.980;2022-07-18T06:34:13;5.88;;;3.45;;
52708;SDS011;38606;52.986;6.980;2022-07-18T06:36:39;8.18;;;3.80;;
52708;SDS011;38606;52.986;6.980;2022-07-18T06:39:05;8.77;;;3.78;;
52708;SDS011;38606;52.986;6.980;2022-07-18T06:41:35;10.15;;;3.50;;
52708;SDS011;38606;52.986;6.980;2022-07-18T06:44:02;8.70;;;3.42;;
52708;SDS011;38606;52.986;6.980;2022-07-18T06:46:28;8.45;;;3.45;;
52708;SDS011;38606;52.986;6.980;2022-07-18T06:48:53;7.63;;;3.33;;
52708;SDS011;38606;52.986;6.980;2022-07-18T06:51:19;9.05;;;3.40;;
52708;SDS011;38606;52.986;6.980;2022-07-18T06:53:45;6.78;;;3.65;;
52708;SDS011;38606;52.986;6.980;2022-07-18T06:56:10;8.65;;;3.15;;
52708;SDS011;38606;52.986;6.980;2022-07-18T06:58:36;6.75;;;3.67;;
52708;SDS011;38606;52.986;6.980;2022-07-18T07:01:02;5.65;;;2.88;;
52708;SDS011;38606;52.986;6.980;2022-07-18T07:03:28;6.30;;;3.00;;
52708;SDS011;38606;52.986;6.980;2022-07-18T07:05:54;8.00;;;2.80;;
52708;SDS011;38606;52.986;6.980;2022-07-18T07:08:19;5.30;;;2.58;;
52708;SDS011;38606;52.986;6.980;2022-07-18T07:10:45;6.50;;;2.80;;
52708;SDS011;38606;52.986;6.980;2022-07-18T07:13:11;8.27;;;2.60;;
52708;SDS011;38606;52.986;6.980;2022-07-18T07:15:36;4.85;;;2.80;;
52708;SDS011;38606;52.986;6.980;2022-07-18T07:18:02;5.68;;;2.38;;
52708;SDS011;38606;52.986;6.980;2022-07-18T07:20:28;6.55;;;2.47;;
52708;SDS011;38606;52.986;6.980;2022-07-18T07:22:55;6.30;;;2.13;;
52708;SDS011;38606;52.986;6.980;2022-07-18T07:25:22;7.35;;;2.55;;
52708;SDS011;38606;52.986;6.980;2022-07-18T07:27:50;5.03;;;2.25;;
52708;SDS011;38606;52.986;6.980;2022-07-18T07:30:17;4.95;;;2.22;;
52708;SDS011;38606;52.986;6.980;2022-07-18T07:32:43;5.55;;;2.28;;
52708;SDS011;38606;52.986;6.980;2022-07-18T07:35:12;6.60;;;1.88;;
52708;SDS011;38606;52.986;6.980;2022-07-18T07:37:42;8.25;;;2.30;;
52708;SDS011;38606;52.986;6.980;2022-07-18T07:40:09;4.40;;;2.03;;
52708;SDS011;38606;52.986;6.980;2022-07-18T07:42:36;5.05;;;1.92;;
52708;SDS011;38606;52.986;6.980;2022-07-18T07:45:02;4.50;;;1.90;;
52708;SDS011;38606;52.986;6.980;2022-07-18T07:47:29;6.30;;;2.90;;
52708;SDS011;38606;52.986;6.980;2022-07-18T07:49:55;4.78;;;2.70;;
52708;SDS011;38606;52.986;6.980;2022-07-18T07:52:23;4.88;;;2.47;;
52708;SDS011;38606;52.986;6.980;2022-07-18T07:54:49;6.10;;;3.05;;
52708;SDS011;38606;52.986;6.980;2022-07-18T07:57:16;6.97;;;3.30;;
52708;SDS011;38606;52.986;6.980;2022-07-18T07:59:42;7.57;;;2.50;;
52708;SDS011;38606;52.986;6.980;2022-07-18T08:02:08;9.00;;;2.38;;
52708;SDS011;38606;52.986;6.980;2022-07-18T08:04:33;3.90;;;1.95;;
52708;SDS011;38606;52.986;6.980;2022-07-18T08:06:59;4.78;;;2.00;;
52708;SDS011;38606;52.986;6.980;2022-07-18T08:09:25;7.03;;;2.05;;
52708;SDS011;38606;52.986;6.980;2022-07-18T08:11:51;5.43;;;1.90;;
52708;SDS011;38606;52.986;6.980;2022-07-18T08:14:17;4.10;;;1.80;;
52708;SDS011;38606;52.986;6.980;2022-07-18T08:16:43;4.78;;;1.90;;
52708;SDS011;38606;52.986;6.980;2022-07-18T08:19:08;7.07;;;2.10;;
52708;SDS011;38606;52.986;6.980;2022-07-18T08:21:34;5.45;;;1.65;;
52708;SDS011;38606;52.986;6.980;2022-07-18T08:24:00;3.63;;;1.67;;
52708;SDS011;38606;52.986;6.980;2022-07-18T08:26:25;6.63;;;1.75;;
52708;SDS011;38606;52.986;6.980;2022-07-18T08:28:51;4.55;;;1.92;;
52708;SDS011;38606;52.986;6.980;2022-07-18T08:31:17;4.93;;;1.90;;
52708;SDS011;38606;52.986;6.980;2022-07-18T08:33:44;4.38;;;1.92;;
52708;SDS011;38606;52.986;6.980;2022-07-18T08:36:10;4.55;;;1.60;;
52708;SDS011;38606;52.986;6.980;2022-07-18T08:38:36;3.35;;;1.52;;
52708;SDS011;38606;52.986;6.980;2022-07-18T08:41:02;4.90;;;1.33;;
52708;SDS011;38606;52.986;6.980;2022-07-18T08:43:28;4.60;;;1.73;;
52708;SDS011;38606;52.986;6.980;2022-07-18T08:45:55;7.25;;;1.50;;
52708;SDS011;38606;52.986;6.980;2022-07-18T08:48:27;4.88;;;1.52;;
52708;SDS011;38606;52.986;6.980;2022-07-18T08:50:52;8.13;;;1.67;;
52708;SDS011;38606;52.986;6.980;2022-07-18T08:53:18;2.70;;;1.52;;
52708;SDS011;38606;52.986;6.980;2022-07-18T08:55:45;3.13;;;1.38;;
52708;SDS011;38606;52.986;6.980;2022-07-18T08:58:12;2.88;;;1.23;;
52708;SDS011;38606;52.986;6.980;2022-07-18T09:00:39;3.40;;;1.20;;
52708;SDS011;38606;52.986;6.980;2022-07-18T09:03:05;4.38;;;1.20;;
52708;SDS011;38606;52.986;6.980;2022-07-18T09:05:32;2.70;;;1.30;;
52708;SDS011;38606;52.986;6.980;2022-07-18T09:08:12;6.22;;;1.40;;
52708;SDS011;38606;52.986;6.980;2022-07-18T09:10:52;5.63;;;1.60;;
52708;SDS011;38606;52.986;6.980;2022-07-18T09:13:22;7.40;;;1.80;;
52708;SDS011;38606;52.986;6.980;2022-07-18T09:18:31;5.55;;;1.23;;
52708;SDS011;38606;52.986;6.980;2022-07-18T09:21:02;4.10;;;1.63;;
52708;SDS011;38606;52.986;6.980;2022-07-18T09:23:37;4.80;;;1.63;;
52708;SDS011;38606;52.986;6.980;2022-07-18T09:26:07;6.05;;;1.75;;
52708;SDS011;38606;52.986;6.980;2022-07-18T09:28:44;7.88;;;1.40;;
52708;SDS011;38606;52.986;6.980;2022-07-18T09:31:21;4.97;;;1.85;;
52708;SDS011;38606;52.986;6.980;2022-07-18T09:33:53;2.95;;;1.38;;
52708;SDS011;38606;52.986;6.980;2022-07-18T09:36:20;4.88;;;1.20;;
52708;SDS011;38606;52.986;6.980;2022-07-18T09:38:46;3.40;;;1.92;;
52708;SDS011;38606;52.986;6.980;2022-07-18T09:41:12;3.83;;;1.52;;
52708;SDS011;38606;52.986;6.980;2022-07-18T09:43:38;11.82;;;1.80;;
52708;SDS011;38606;52.986;6.980;2022-07-18T09:46:04;4.68;;;1.40;;
52708;SDS011;38606;52.986;6.980;2022-07-18T09:48:31;3.22;;;1.33;;
52708;SDS011;38606;52.986;6.980;2022-07-18T09:50:58;6.03;;;1.48;;
52708;SDS011;38606;52.986;6.980;2022-07-18T09:53:32;2.70;;;1.40;;
52708;SDS011;38606;52.986;6.980;2022-07-18T09:55:59;5.53;;;1.58;;
52708;SDS011;38606;52.986;6.980;2022-07-18T09:58:26;2.17;;;1.27;;
52708;SDS011;38606;52.986;6.980;2022-07-18T10:00:57;3.63;;;1.23;;
52708;SDS011;38606;52.986;6.980;2022-07-18T10:03:24;3.88;;;1.40;;
52708;SDS011;38606;52.986;6.980;2022-07-18T10:05:51;8.15;;;1.60;;
52708;SDS011;38606;52.986;6.980;2022-07-18T10:08:19;4.78;;;1.35;;
52708;SDS011;38606;52.986;6.980;2022-07-18T10:10:47;6.05;;;1.40;;
52708;SDS011;38606;52.986;6.980;2022-07-18T10:13:14;6.65;;;1.48;;
52708;SDS011;38606;52.986;6.980;2022-07-18T10:15:42;5.25;;;1.30;;
52708;SDS011;38606;52.986;6.980;2022-07-18T10:18:10;5.32;;;1.40;;
52708;SDS011;38606;52.986;6.980;2022-07-18T10:23:29;3.03;;;1.20;;
52708;SDS011;38606;52.986;6.980;2022-07-18T10:31:21;5.38;;;1.60;;
52708;SDS011;38606;52.986;6.980;2022-07-18T10:33:52;4.25;;;1.23;;
52708;SDS011;38606;52.986;6.980;2022-07-18T10:36:34;5.13;;;1.50;;
52708;SDS011;38606;52.986;6.980;2022-07-18T10:39:08;5.00;;;1.30;;
52708;SDS011;38606;52.986;6.980;2022-07-18T10:57:27;3.67;;;1.55;;
52708;SDS011;38606;52.986;6.980;2022-07-18T11:02:35;5.93;;;1.90;;
52708;SDS011;38606;52.986;6.980;2022-07-18T11:05:02;4.88;;;1.85;;
52708;SDS011;38606;52.986;6.980;2022-07-18T11:13:24;2.72;;;1.65;;
52708;SDS011;38606;52.986;6.980;2022-07-18T11:23:46;2.50;;;1.70;;
52708;SDS011;38606;52.986;6.980;2022-07-18T11:26:18;3.05;;;2.08;;
52708;SDS011;38606;52.986;6.980;2022-07-18T11:28:46;3.35;;;1.90;;
52708;SDS011;38606;52.986;6.980;2022-07-18T11:31:16;2.15;;;1.70;;
52708;SDS011;38606;52.986;6.980;2022-07-18T11:33:46;4.93;;;2.03;;
52708;SDS011;38606;52.986;6.980;2022-07-18T11:36:17;3.83;;;2.10;;
52708;SDS011;38606;52.986;6.980;2022-07-18T11:38:48;5.80;;;2.20;;
52708;SDS011;38606;52.986;6.980;2022-07-18T11:41:15;3.58;;;2.05;;
52708;SDS011;38606;52.986;6.980;2022-07-18T11:43:43;6.32;;;2.30;;
52708;SDS011;38606;52.986;6.980;2022-07-18T11:46:10;3.78;;;2.10;;
52708;SDS011;38606;52.986;6.980;2022-07-18T11:48:38;8.70;;;2.60;;
52708;SDS011;38606;52.986;6.980;2022-07-18T11:51:20;3.97;;;2.45;;
52708;SDS011;38606;52.986;6.980;2022-07-18T11:53:49;4.03;;;2.60;;
52708;SDS011;38606;52.986;6.980;2022-07-18T11:56:16;6.22;;;2.70;;
52708;SDS011;38606;52.986;6.980;2022-07-18T11:58:44;5.53;;;2.75;;
52708;SDS011;38606;52.986;6.980;2022-07-18T12:01:11;4.15;;;2.45;;
52708;SDS011;38606;52.986;6.980;2022-07-18T12:03:45;4.63;;;2.78;;
52708;SDS011;38606;52.986;6.980;2022-07-18T12:06:22;5.28;;;3.08;;
52708;SDS011;38606;52.986;6.980;2022-07-18T12:08:53;5.82;;;2.88;;
52708;SDS011;38606;52.986;6.980;2022-07-18T12:13:57;4.38;;;2.75;;
52708;SDS011;38606;52.986;6.980;2022-07-18T12:18:54;7.30;;;3.30;;
52708;SDS011;38606;52.986;6.980;2022-07-18T12:21:22;3.95;;;2.85;;
52708;SDS011;38606;52.986;6.980;2022-07-18T12:23:48;6.03;;;3.08;;
52708;SDS011;38606;52.986;6.980;2022-07-18T12:26:30;5.20;;;2.67;;
52708;SDS011;38606;52.986;6.980;2022-07-18T12:29:04;3.58;;;3.00;;
52708;SDS011;38606;52.986;6.980;2022-07-18T12:31:43;5.95;;;2.90;;
52708;SDS011;38606;52.986;6.980;2022-07-18T12:34:11;4.05;;;2.90;;
52708;SDS011;38606;52.986;6.980;2022-07-18T12:36:54;6.65;;;2.60;;
52708;SDS011;38606;52.986;6.980;2022-07-18T12:39:32;5.57;;;3.25;;
52708;SDS011;38606;52.986;6.980;2022-07-18T12:41:59;4.80;;;2.92;;
52708;SDS011;38606;52.986;6.980;2022-07-18T12:44:26;3.35;;;2.83;;
52708;SDS011;38606;52.986;6.980;2022-07-18T12:46:52;5.47;;;2.58;;
52708;SDS011;38606;52.986;6.980;2022-07-18T12:49:19;5.45;;;2.72;;
52708;SDS011;38606;52.986;6.980;2022-07-18T12:51:45;5.40;;;3.30;;
52708;SDS011;38606;52.986;6.980;2022-07-18T12:54:11;4.18;;;2.72;;
52708;SDS011;38606;52.986;6.980;2022-07-18T12:56:37;6.55;;;2.92;;
52708;SDS011;38606;52.986;6.980;2022-07-18T12:59:03;5.32;;;3.10;;
52708;SDS011;38606;52.986;6.980;2022-07-18T13:01:28;7.07;;;2.85;;
52708;SDS011;38606;52.986;6.980;2022-07-18T13:03:54;5.63;;;3.40;;
52708;SDS011;38606;52.986;6.980;2022-07-18T13:06:20;5.78;;;3.20;;
52708;SDS011;38606;52.986;6.980;2022-07-18T13:08:45;5.63;;;2.65;;
52708;SDS011;38606;52.986;6.980;2022-07-18T13:11:11;3.80;;;2.38;;
52708;SDS011;38606;52.986;6.980;2022-07-18T13:13:37;6.05;;;3.55;;
52708;SDS011;38606;52.986;6.980;2022-07-18T13:16:04;5.50;;;3.95;;
52708;SDS011;38606;52.986;6.980;2022-07-18T13:18:30;5.53;;;3.03;;
52708;SDS011;38606;52.986;6.980;2022-07-18T13:20:55;6.57;;;3.20;;
52708;SDS011;38606;52.986;6.980;2022-07-18T13:23:21;5.13;;;3.28;;
52708;SDS011;38606;52.986;6.980;2022-07-18T13:25:47;5.22;;;3.00;;
52708;SDS011;38606;52.986;6.980;2022-07-18T13:28:12;4.28;;;3.20;;
52708;SDS011;38606;52.986;6.980;2022-07-18T13:30:39;3.40;;;2.83;;
52708;SDS011;38606;52.986;6.980;2022-07-18T13:33:04;3.35;;;2.60;;
52708;SDS011;38606;52.986;6.980;2022-07-18T13:35:30;4.28;;;2.80;;
52708;SDS011;38606;52.986;6.980;2022-07-18T13:37:56;5.88;;;2.70;;
52708;SDS011;38606;52.986;6.980;2022-07-18T13:40:22;5.95;;;2.75;;
52708;SDS011;38606;52.986;6.980;2022-07-18T13:42:47;5.25;;;2.88;;
52708;SDS011;38606;52.986;6.980;2022-07-18T13:45:13;4.43;;;2.60;;
52708;SDS011;38606;52.986;6.980;2022-07-18T13:47:40;3.85;;;2.78;;
52708;SDS011;38606;52.986;6.980;2022-07-18T13:50:06;4.60;;;2.83;;
52708;SDS011;38606;52.986;6.980;2022-07-18T13:52:33;3.67;;;2.80;;
52708;SDS011;38606;52.986;6.980;2022-07-18T13:54:59;5.83;;;2.70;;
52708;SDS011;38606;52.986;6.980;2022-07-18T13:57:25;4.50;;;2.40;;
52708;SDS011;38606;52.986;6.980;2022-07-18T13:59:51;5.25;;;2.83;;
52708;SDS011;38606;52.986;6.980;2022-07-18T14:02:17;6.20;;;2.90;;
52708;SDS011;38606;52.986;6.980;2022-07-18T14:04:43;4.55;;;2.47;;
52708;SDS011;38606;52.986;6.980;2022-07-18T14:07:09;5.72;;;2.45;;
52708;SDS011;38606;52.986;6.980;2022-07-18T14:09:36;3.25;;;2.30;;
52708;SDS011;38606;52.986;6.980;2022-07-18T14:12:03;4.68;;;2.30;;
52708;SDS011;38606;52.986;6.980;2022-07-18T14:14:29;4.43;;;2.30;;
52708;SDS011;38606;52.986;6.980;2022-07-18T14:16:55;4.70;;;2.33;;
52708;SDS011;38606;52.986;6.980;2022-07-18T14:19:20;4.53;;;2.97;;
52708;SDS011;38606;52.986;6.980;2022-07-18T14:21:46;6.13;;;2.88;;
52708;SDS011;38606;52.986;6.980;2022-07-18T14:24:12;4.00;;;2.50;;
52708;SDS011;38606;52.986;6.980;2022-07-18T14:26:38;5.90;;;2.58;;
52708;SDS011;38606;52.986;6.980;2022-07-18T14:29:03;2.85;;;2.35;;
52708;SDS011;38606;52.986;6.980;2022-07-18T14:31:30;3.38;;;2.40;;
52708;SDS011;38606;52.986;6.980;2022-07-18T14:33:55;6.22;;;2.25;;
52708;SDS011;38606;52.986;6.980;2022-07-18T14:36:21;3.60;;;2.50;;
52708;SDS011;38606;52.986;6.980;2022-07-18T14:38:47;6.20;;;2.35;;
52708;SDS011;38606;52.986;6.980;2022-07-18T14:41:12;4.32;;;2.28;;
52708;SDS011;38606;52.986;6.980;2022-07-18T14:43:38;3.97;;;2.60;;
52708;SDS011;38606;52.986;6.980;2022-07-18T14:46:04;3.15;;;2.40;;
52708;SDS011;38606;52.986;6.980;2022-07-18T14:48:30;3.03;;;2.50;;
52708;SDS011;38606;52.986;6.980;2022-07-18T14:50:56;3.40;;;2.63;;
52708;SDS011;38606;52.986;6.980;2022-07-18T14:53:22;4.03;;;2.10;;
52708;SDS011;38606;52.986;6.980;2022-07-18T14:55:48;3.50;;;2.08;;
52708;SDS011;38606;52.986;6.980;2022-07-18T14:58:14;5.80;;;2.35;;
52708;SDS011;38606;52.986;6.980;2022-07-18T15:00:39;4.20;;;2.47;;
52708;SDS011;38606;52.986;6.980;2022-07-18T15:03:05;4.18;;;2.00;;
52708;SDS011;38606;52.986;6.980;2022-07-18T15:05:31;4.82;;;2.10;;
52708;SDS011;38606;52.986;6.980;2022-07-18T15:07:56;4.97;;;2.40;;
52708;SDS011;38606;52.986;6.980;2022-07-18T15:10:22;4.10;;;1.90;;
52708;SDS011;38606;52.986;6.980;2022-07-18T15:12:48;4.68;;;2.33;;
52708;SDS011;38606;52.986;6.980;2022-07-18T15:15:14;4.05;;;2.30;;
52708;SDS011;38606;52.986;6.980;2022-07-18T15:17:39;3.47;;;1.95;;
52708;SDS011;38606;52.986;6.980;2022-07-18T15:20:06;5.97;;;2.40;;
52708;SDS011;38606;52.986;6.980;2022-07-18T15:22:33;3.03;;;2.20;;
52708;SDS011;38606;52.986;6.980;2022-07-18T15:24:59;6.22;;;2.47;;
52708;SDS011;38606;52.986;6.980;2022-07-18T15:27:25;3.45;;;2.35;;
52708;SDS011;38606;52.986;6.980;2022-07-18T15:29:51;3.28;;;2.35;;